Time;durP1;ratioP1;P1;durP2;ratioP2;P2;SDS_P1;SDS_P2;PMS_P1;PMS_P2;Temp;Humidity;BMP_temperature;BMP_pressure;BME280_temperature;BME280_humidity;BME280_pressure;Samples;Min_cycle;Max_cycle;Signal;HPM_P1;HPM_P2
2022/11/03 00:00:26;;;;;;;11.10;3.17;;;;;;;16.26;100.00;101251.63;5003359;28;20348;-49
2022/11/03 00:02:51;;;;;;;18.67;3.53;;;;;;;16.33;100.00;101239.72;5003812;28;20046;-51
2022/11/03 00:08:02;;;;;;;17.23;2.97;;;;;;;16.42;100.00;101242.94;5010233;28;20051;-52
2022/11/03 00:10:29;;;;;;;14.97;3.83;;;;;;;16.23;100.00;101241.28;5002646;28;20283;-49
2022/11/03 00:12:55;;;;;;;19.13;4.03;;;;;;;16.67;100.00;101227.69;4999088;28;20268;-52
2022/11/03 00:15:20;;;;;;;18.57;3.13;;;;;;;16.77;100.00;101231.50;5005234;28;20271;-49
2022/11/03 00:17:46;;;;;;;18.27;2.67;;;;;;;16.46;100.00;101237.91;5011329;28;20295;-53
2022/11/03 00:20:11;;;;;;;20.57;2.80;;;;;;;16.28;100.00;101214.44;5006358;28;20273;-51
2022/11/03 00:22:37;;;;;;;14.93;3.30;;;;;;;16.47;100.00;101229.59;5006330;28;20086;-53
2022/11/03 00:25:03;;;;;;;20.80;3.97;;;;;;;16.60;100.00;101214.25;5006991;28;20064;-52
2022/11/03 00:27:28;;;;;;;16.55;3.00;;;;;;;16.15;100.00;101237.84;5011219;28;20117;-53
2022/11/03 00:29:54;;;;;;;19.23;2.58;;;;;;;16.28;100.00;101187.44;5004553;28;20030;-53
2022/11/03 00:32:19;;;;;;;21.38;2.83;;;;;;;16.57;100.00;101204.75;5008132;28;20038;-52
2022/11/03 00:34:45;;;;;;;23.33;3.40;;;;;;;16.30;100.00;101186.19;5009145;28;20026;-50
2022/11/03 00:37:10;;;;;;;19.67;3.08;;;;;;;16.07;100.00;101194.94;5008607;28;20066;-48
2022/11/03 00:39:36;;;;;;;20.40;4.88;;;;;;;16.37;100.00;101178.00;4999502;28;20042;-53
2022/11/03 00:42:02;;;;;;;12.40;2.83;;;;;;;16.35;100.00;101177.41;5018789;28;20107;-51
2022/11/03 00:44:28;;;;;;;13.55;2.58;;;;;;;16.33;100.00;101174.09;5001647;28;20060;-54
2022/11/03 00:46:53;;;;;;;19.58;3.78;;;;;;;16.30;100.00;101177.25;4999085;28;20095;-55
2022/11/03 00:49:19;;;;;;;18.73;3.45;;;;;;;16.41;100.00;101187.31;5001954;28;20055;-51
2022/11/03 00:51:44;;;;;;;16.00;3.40;;;;;;;16.23;100.00;101180.03;5000520;28;20042;-52
2022/11/03 00:54:10;;;;;;;17.58;3.35;;;;;;;16.25;100.00;101171.72;5001585;28;20079;-54
2022/11/03 00:56:37;;;;;;;16.88;2.53;;;;;;;16.38;100.00;101158.06;5005489;28;20038;-51
2022/11/03 00:59:04;;;;;;;11.03;3.33;;;;;;;16.50;100.00;101150.03;5009715;28;20049;-53
2022/11/03 01:01:35;;;;;;;9.60;2.50;;;;;;;16.27;100.00;101164.22;5009784;28;20272;-50
2022/11/03 01:06:49;;;;;;;19.13;3.80;;;;;;;16.64;100.00;101158.78;4992694;28;20269;-52
2022/11/03 01:09:36;;;;;;;12.13;3.40;;;;;;;16.60;100.00;101152.16;5022910;28;20287;-54
2022/11/03 01:12:12;;;;;;;14.00;3.28;;;;;;;16.82;100.00;101157.06;5002385;28;20277;-52
2022/11/03 01:14:41;;;;;;;12.65;3.03;;;;;;;16.59;100.00;101158.63;5015424;28;20043;-52
2022/11/03 01:17:09;;;;;;;14.33;2.57;;;;;;;16.63;100.00;101146.34;5007831;28;20056;-51
2022/11/03 01:19:35;;;;;;;15.83;3.53;;;;;;;16.78;100.00;101149.44;5013806;28;20265;-48
2022/11/03 01:22:01;;;;;;;10.13;2.83;;;;;;;16.77;100.00;101147.78;5009236;28;20360;-51
2022/11/03 01:24:26;;;;;;;15.37;2.83;;;;;;;16.70;100.00;101140.81;5006577;28;20330;-49
2022/11/03 01:26:52;;;;;;;19.17;3.15;;;;;;;16.78;100.00;101129.72;5015783;28;20273;-52
2022/11/03 01:29:17;;;;;;;19.10;3.30;;;;;;;16.99;100.00;101133.78;5008170;28;20058;-51
2022/11/03 01:31:43;;;;;;;22.30;3.00;;;;;;;16.70;100.00;101127.31;5005201;28;20038;-51
2022/11/03 01:34:17;;;;;;;16.90;3.47;;;;;;;16.65;100.00;101144.22;4998671;28;20042;-55
2022/11/03 01:36:44;;;;;;;11.83;2.53;;;;;;;16.86;100.00;101117.75;5000198;28;20094;-55
2022/11/03 01:39:11;;;;;;;17.25;4.63;;;;;;;16.58;100.00;101124.56;5007820;28;20269;-54
2022/11/03 01:41:38;;;;;;;21.20;3.57;;;;;;;16.70;100.00;101106.56;4996057;28;20033;-54
2022/11/03 01:44:06;;;;;;;11.52;3.65;;;;;;;17.28;100.00;101120.44;5005956;28;20343;-53
2022/11/03 01:46:38;;;;;;;14.07;2.63;;;;;;;16.91;100.00;101107.09;5000455;28;20070;-55
2022/11/03 01:49:11;;;;;;;15.00;2.93;;;;;;;16.86;100.00;101106.97;5000155;28;20341;-52
2022/11/03 01:51:38;;;;;;;15.40;3.40;;;;;;;16.90;100.00;101100.03;5003341;28;20340;-52
2022/11/03 01:54:08;;;;;;;13.17;2.17;;;;;;;17.25;100.00;101115.50;4996109;28;20277;-53
2022/11/03 01:56:39;;;;;;;14.87;2.67;;;;;;;17.38;100.00;101098.22;5004523;28;20291;-52
2022/11/03 01:59:06;;;;;;;12.67;3.23;;;;;;;17.19;100.00;101081.31;4999444;28;20276;-52
2022/11/03 02:01:33;;;;;;;18.57;3.80;;;;;;;17.34;100.00;101091.66;5002117;28;20268;-55
2022/11/03 02:04:06;;;;;;;15.10;2.53;;;;;;;17.36;100.00;101099.53;4994775;28;20269;-54
2022/11/03 02:06:32;;;;;;;10.03;2.37;;;;;;;17.28;100.00;101087.19;5006384;28;20279;-55
2022/11/03 02:09:02;;;;;;;18.00;2.70;;;;;;;17.18;100.00;101077.81;4997144;28;20284;-53
2022/11/03 02:14:14;;;;;;;15.90;2.80;;;;;;;17.26;100.00;101084.72;4999520;28;20329;-49
2022/11/03 02:16:42;;;;;;;16.92;3.08;;;;;;;17.28;100.00;101060.97;4997701;28;20281;-54
2022/11/03 02:19:21;;;;;;;11.47;2.40;;;;;;;17.02;100.00;101062.28;4993054;28;20038;-52
2022/11/03 02:21:58;;;;;;;23.67;3.00;;;;;;;17.24;100.00;101073.31;4999330;28;20329;-51
2022/11/03 02:24:39;;;;;;;13.73;2.58;;;;;;;17.27;100.00;101067.44;4997646;28;20286;-52
2022/11/03 02:27:04;;;;;;;14.10;2.97;;;;;;;17.17;100.00;101057.22;5006696;28;20038;-53
2022/11/03 02:29:30;;;;;;;14.50;2.83;;;;;;;17.15;100.00;101061.22;5000893;28;20319;-52
2022/11/03 02:32:14;;;;;;;13.30;2.73;;;;;;;17.22;100.00;101058.41;4999899;28;20053;-50
2022/11/03 02:35:22;;;;;;;14.43;2.90;;;;;;;17.34;100.00;101051.94;4994032;28;20965;-54
2022/11/03 02:37:53;;;;;;;19.20;3.60;;;;;;;17.40;100.00;101043.94;4964261;28;20283;-51
2022/11/03 02:40:26;;;;;;;10.80;2.63;;;;;;;17.19;100.00;101051.59;5007859;28;20303;-52
2022/11/03 02:42:53;;;;;;;13.50;2.33;;;;;;;17.08;100.00;101031.59;5001289;28;20324;-53
2022/11/03 02:45:22;;;;;;;15.30;2.85;;;;;;;16.78;100.00;101025.19;4998764;28;20264;-53
2022/11/03 02:47:49;;;;;;;13.93;2.87;;;;;;;17.38;100.00;101027.13;5007511;28;20061;-51
2022/11/03 02:50:16;;;;;;;11.27;2.27;;;;;;;17.24;100.00;101027.38;5004159;28;20294;-52
2022/11/03 02:52:45;;;;;;;18.53;3.37;;;;;;;17.34;100.00;101015.97;5005282;28;20285;-54
2022/11/03 02:55:21;;;;;;;11.90;3.90;;;;;;;17.15;100.00;101023.38;5005566;28;20287;-50
2022/11/03 02:58:19;;;;;;;16.58;3.13;;;;;;;17.26;100.00;101027.97;5002809;28;20273;-54
2022/11/03 03:01:16;;;;;;;17.15;3.03;;;;;;;17.16;100.00;101025.03;5010713;28;20035;-54
2022/11/03 03:04:02;;;;;;;20.07;2.90;;;;;;;17.03;100.00;101010.69;5005715;28;20036;-55
2022/11/03 03:06:38;;;;;;;14.83;2.80;;;;;;;17.09;100.00;101002.72;5011370;28;20276;-53
2022/11/03 03:09:07;;;;;;;14.70;3.63;;;;;;;17.21;100.00;101003.53;5001368;28;20280;-55
2022/11/03 03:11:37;;;;;;;14.93;3.27;;;;;;;17.13;100.00;100990.38;5008096;28;20304;-50
2022/11/03 03:14:07;;;;;;;14.20;2.87;;;;;;;16.98;100.00;101017.84;5005374;28;20306;-51
2022/11/03 03:16:41;;;;;;;12.20;2.37;;;;;;;17.18;100.00;100995.91;5010535;28;20268;-53
2022/11/03 03:19:34;;;;;;;18.90;3.40;;;;;;;17.46;100.00;100987.06;4998958;28;20283;-49
2022/11/03 03:22:05;;;;;;;17.67;3.07;;;;;;;17.51;100.00;100983.63;5003561;28;20268;-55
2022/11/03 03:24:57;;;;;;;13.47;3.03;;;;;;;17.09;100.00;100970.31;5006955;28;20304;-53
2022/11/03 03:27:26;;;;;;;13.73;2.40;;;;;;;17.20;100.00;100967.59;5001958;28;20280;-53
2022/11/03 03:29:58;;;;;;;19.10;2.67;;;;;;;17.57;100.00;100954.81;4998245;28;20292;-50
2022/11/03 03:32:27;;;;;;;14.50;3.77;;;;;;;17.83;100.00;100955.31;5007579;28;20279;-48
2022/11/03 03:34:54;;;;;;;17.40;2.90;;;;;;;17.84;100.00;100955.06;4993805;28;20272;-47
2022/11/03 03:37:23;;;;;;;18.30;3.00;;;;;;;17.65;100.00;100954.44;5008515;28;20276;-49
2022/11/03 03:39:53;;;;;;;12.13;3.43;;;;;;;17.85;100.00;100951.31;4999900;28;20261;-51
2022/11/03 03:42:20;;;;;;;11.73;2.30;;;;;;;17.32;100.00;100951.34;5016646;28;20257;-52
2022/11/03 03:44:47;;;;;;;18.63;3.83;;;;;;;17.51;100.00;100964.69;5008828;28;20272;-53
2022/11/03 03:47:20;;;;;;;8.18;2.58;;;;;;;18.02;100.00;100948.66;5010311;28;20349;-50
2022/11/03 03:49:45;;;;;;;13.60;2.83;;;;;;;17.30;100.00;100937.25;5002938;28;20069;-51
2022/11/03 03:52:11;;;;;;;19.20;3.37;;;;;;;17.20;100.00;100945.97;5013696;28;20273;-50
2022/11/03 03:54:37;;;;;;;13.32;3.30;;;;;;;17.22;100.00;100934.91;5011375;28;20027;-52
2022/11/03 03:57:04;;;;;;;13.77;3.35;;;;;;;17.11;100.00;100941.16;5003696;28;20054;-50
2022/11/03 03:59:30;;;;;;;15.77;2.70;;;;;;;17.00;100.00;100927.41;5003865;28;20065;-52
2022/11/03 04:01:56;;;;;;;16.83;3.60;;;;;;;17.23;100.00;100933.84;5006288;28;20353;-48
2022/11/03 04:04:22;;;;;;;11.82;2.28;;;;;;;17.28;100.00;100915.03;5012294;28;20276;-52
2022/11/03 04:06:48;;;;;;;18.15;2.95;;;;;;;17.50;100.00;100922.50;5016010;28;20034;-50
2022/11/03 04:09:14;;;;;;;16.57;3.43;;;;;;;17.51;100.00;100943.06;5009389;28;20106;-52
2022/11/03 04:22:47;;;;;;;16.47;3.00;;;;;;;17.14;100.00;100949.59;5010417;28;20288;-49
2022/11/03 04:25:14;;;;;;;23.03;3.63;;;;;;;17.11;100.00;100923.06;5006564;28;20272;-50
2022/11/03 04:27:40;;;;;;;13.88;3.20;;;;;;;17.00;100.00;100926.59;4999606;28;20318;-51
2022/11/03 04:30:08;;;;;;;12.63;2.55;;;;;;;17.17;100.00;100919.41;5007845;28;20049;-48
2022/11/03 04:32:35;;;;;;;20.20;3.67;;;;;;;17.50;100.00;100925.19;5000786;28;20064;-52
2022/11/03 04:35:00;;;;;;;15.05;2.92;;;;;;;17.19;100.00;100900.25;5000428;28;20267;-52
2022/11/03 04:37:27;;;;;;;20.50;3.58;;;;;;;17.21;100.00;100903.53;5003583;28;20038;-52
2022/11/03 04:39:58;;;;;;;;;;;;;;;17.36;100.00;100896.81;5002994;28;20038;-51
2022/11/03 04:42:24;;;;;;;19.77;3.20;;;;;;;17.24;100.00;100891.44;5007735;28;19965;-52
2022/11/03 04:44:50;;;;;;;13.37;2.70;;;;;;;17.17;100.00;100900.47;5003364;28;20280;-50
2022/11/03 04:47:16;;;;;;;17.25;3.30;;;;;;;17.02;100.00;100900.97;5008878;28;20275;-50
2022/11/03 04:49:45;;;;;;;;;;;;;;;17.37;100.00;100884.94;5007715;28;20046;-53
2022/11/03 04:52:20;;;;;;;11.50;2.57;;;;;;;17.39;100.00;100885.53;5004645;28;19935;-53
2022/11/03 04:54:48;;;;;;;17.70;2.50;;;;;;;17.30;100.00;100891.31;4999338;28;20377;-51
2022/11/03 04:57:15;;;;;;;14.37;2.63;;;;;;;17.27;100.00;100888.25;5008635;28;20296;-52
2022/11/03 04:59:45;;;;;;;16.57;2.57;;;;;;;17.20;100.00;100881.13;5000909;28;20268;-52
2022/11/03 05:02:16;;;;;;;20.07;3.47;;;;;;;17.15;100.00;100880.97;4999991;28;20265;-50
2022/11/03 05:04:42;;;;;;;12.00;2.53;;;;;;;17.01;100.00;100882.31;4999843;28;20288;-52
2022/11/03 05:07:27;;;;;;;14.75;2.55;;;;;;;17.03;100.00;100872.09;5014182;28;20321;-53
2022/11/03 05:09:53;;;;;;;13.17;2.40;;;;;;;17.39;100.00;100872.81;5001896;28;20046;-51
2022/11/03 05:12:20;;;;;;;13.27;2.58;;;;;;;16.99;100.00;100862.84;5003329;28;20291;-54
2022/11/03 05:14:45;;;;;;;14.00;2.95;;;;;;;17.02;100.00;100863.16;5003669;28;20102;-50
2022/11/03 05:17:24;;;;;;;12.90;3.63;;;;;;;17.00;100.00;100854.47;5003471;28;20062;-51
2022/11/03 05:19:53;;;;;;;17.80;3.17;;;;;;;17.08;100.00;100852.47;5008873;28;20269;-50
2022/11/03 05:22:22;;;;;;;12.03;2.40;;;;;;;17.07;100.00;100843.53;5003742;28;20388;-52
2022/11/03 05:24:57;;;;;;;12.83;3.10;;;;;;;17.32;100.00;100843.25;4999288;28;20272;-47
2022/11/03 05:27:23;;;;;;;14.30;3.23;;;;;;;17.15;100.00;100837.75;4996094;28;20290;-52
2022/11/03 05:29:50;;;;;;;9.20;2.83;;;;;;;17.22;100.00;100840.31;4996036;28;20300;-54
2022/11/03 05:32:23;;;;;;;10.90;2.53;;;;;;;17.28;100.00;100816.94;5000287;28;20040;-51
2022/11/03 05:34:51;;;;;;;18.13;3.00;;;;;;;17.41;100.00;100823.94;4996882;28;20269;-53
2022/11/03 05:37:29;;;;;;;11.03;2.90;;;;;;;16.97;100.00;100821.69;5002343;28;20283;-55
2022/11/03 05:39:58;;;;;;;12.83;2.53;;;;;;;17.22;100.00;100824.09;5000250;28;20272;-51
2022/11/03 05:42:33;;;;;;;15.83;3.23;;;;;;;17.33;100.00;100808.91;5004703;28;20276;-52
2022/11/03 05:45:02;;;;;;;11.13;2.60;;;;;;;17.10;100.00;100810.63;5002472;28;20304;-51
2022/11/03 05:47:38;;;;;;;12.67;3.47;;;;;;;17.27;100.00;100805.28;5009440;28;20300;-53
2022/11/03 05:50:33;;;;;;;15.32;2.45;;;;;;;17.27;100.00;100804.47;5026502;28;20277;-53
2022/11/03 05:53:13;;;;;;;13.97;2.33;;;;;;;17.33;100.00;100808.91;4997677;28;20051;-49
2022/11/03 05:55:39;;;;;;;9.10;3.23;;;;;;;17.39;100.00;100790.91;5009061;28;20279;-50
2022/11/03 05:58:18;;;;;;;12.57;2.57;;;;;;;17.42;100.00;100802.06;5005401;28;20331;-51
2022/11/03 06:00:45;;;;;;;15.53;2.80;;;;;;;17.72;100.00;100795.56;4997150;28;20070;-51
2022/11/03 06:03:19;;;;;;;17.00;3.53;;;;;;;17.60;100.00;100798.31;4998713;28;20283;-54
2022/11/03 06:05:46;;;;;;;9.67;2.60;;;;;;;17.48;100.00;100801.09;5001134;28;20121;-51
2022/11/03 06:08:18;;;;;;;9.70;2.22;;;;;;;17.49;100.00;100785.69;5002332;28;20322;-54
2022/11/03 06:10:50;;;;;;;15.13;3.57;;;;;;;17.47;100.00;100795.91;5003559;28;20043;-50
2022/11/03 06:13:21;;;;;;;14.87;3.03;;;;;;;17.17;100.00;100784.28;5001647;28;20272;-53
2022/11/03 06:15:49;;;;;;;10.70;2.57;;;;;;;17.10;100.00;100777.41;5013185;28;20301;-54
2022/11/03 06:18:23;;;;;;;11.83;2.33;;;;;;;16.59;100.00;100772.56;5004338;28;20264;-54
2022/11/03 06:21:02;;;;;;;15.73;2.87;;;;;;;16.86;100.00;100772.84;5001696;28;20299;-56
2022/11/03 06:23:27;;;;;;;15.13;2.67;;;;;;;16.85;100.00;100771.22;5004537;28;20280;-55
2022/11/03 06:25:55;;;;;;;19.60;3.20;;;;;;;16.82;100.00;100766.28;5004128;28;20428;-52
2022/11/03 06:28:25;;;;;;;13.17;3.10;;;;;;;16.83;100.00;100759.84;5003794;28;20101;-50
2022/11/03 06:30:50;;;;;;;18.93;3.13;;;;;;;17.03;100.00;100766.75;4995588;28;20280;-53
2022/11/03 06:33:25;;;;;;;10.35;2.85;;;;;;;17.08;100.00;100768.72;4999799;28;20412;-51
2022/11/03 06:35:57;;;;;;;13.60;2.87;;;;;;;16.73;100.00;100765.03;5002802;28;20039;-50
2022/11/03 06:38:25;;;;;;;13.97;2.80;;;;;;;16.72;100.00;100753.41;4999751;28;20268;-54
2022/11/03 06:40:52;;;;;;;13.07;2.53;;;;;;;17.15;100.00;100745.88;5003050;28;20264;-56
2022/11/03 06:43:39;;;;;;;18.40;3.05;;;;;;;16.69;100.00;100753.88;4998933;28;20275;-52
2022/11/03 06:46:17;;;;;;;8.63;2.38;;;;;;;16.76;100.00;100749.16;4996988;28;20035;-50
2022/11/03 06:48:43;;;;;;;16.07;2.77;;;;;;;16.92;100.00;100750.28;4999470;28;20042;-54
2022/11/03 06:51:17;;;;;;;;;;;;;;;16.76;100.00;100741.06;4998861;28;20330;-56
2022/11/03 06:53:43;;;;;;;17.10;3.20;;;;;;;17.06;100.00;100745.44;4999993;28;19926;-53
2022/11/03 06:56:14;;;;;;;12.25;2.95;;;;;;;17.22;100.00;100747.63;4992031;28;20284;-51
2022/11/03 06:58:40;;;;;;;12.90;2.80;;;;;;;16.83;100.00;100734.69;4997887;28;20103;-54
2022/11/03 07:01:15;;;;;;;16.25;3.42;;;;;;;16.60;100.00;100742.63;4990953;28;20284;-54
2022/11/03 07:03:41;;;;;;;12.20;2.77;;;;;;;16.93;100.00;100743.00;4999029;28;20043;-49
2022/11/03 07:06:09;;;;;;;17.30;2.73;;;;;;;16.86;100.00;100735.03;4998647;28;20323;-53
2022/11/03 07:08:41;;;;;;;21.27;3.63;;;;;;;16.82;100.00;100739.28;4994240;28;20102;-54
2022/11/03 07:11:15;;;;;;;17.00;3.23;;;;;;;16.90;100.00;100743.50;4989368;28;20314;-52
2022/11/03 07:13:41;;;;;;;15.37;3.43;;;;;;;17.16;100.00;100734.00;4995786;28;20327;-53
2022/11/03 07:16:12;;;;;;;10.50;3.08;;;;;;;16.87;100.00;100736.69;5000292;28;20331;-50
2022/11/03 07:18:41;;;;;;;17.07;3.87;;;;;;;16.96;100.00;100729.03;4998821;28;20062;-50
2022/11/03 07:21:39;;;;;;;10.37;3.00;;;;;;;17.10;100.00;100734.97;4994302;28;20265;-52
2022/11/03 07:24:15;;;;;;;10.67;2.90;;;;;;;17.23;100.00;100739.28;4993844;28;20299;-50
2022/11/03 07:26:40;;;;;;;12.17;2.93;;;;;;;17.16;100.00;100733.19;4993503;28;20281;-49
2022/11/03 07:29:20;;;;;;;13.07;2.70;;;;;;;16.87;100.00;100727.78;4995026;28;20349;-52
2022/11/03 07:31:45;;;;;;;6.53;2.53;;;;;;;16.85;100.00;100732.59;4995315;28;20098;-53
2022/11/03 07:34:18;;;;;;;15.93;2.63;;;;;;;17.06;100.00;100740.03;4992464;28;20298;-55
2022/11/03 07:36:44;;;;;;;12.47;2.40;;;;;;;17.24;100.00;100732.81;4996583;28;20039;-54
2022/11/03 07:39:14;;;;;;;12.27;2.85;;;;;;;17.18;100.00;100726.50;5001636;28;20264;-54
2022/11/03 07:41:41;;;;;;;11.50;2.30;;;;;;;17.03;100.00;100729.72;4993984;28;20047;-51
2022/11/03 07:44:21;;;;;;;18.38;4.13;;;;;;;17.10;100.00;100731.47;4993620;28;20343;-54
2022/11/03 07:46:48;;;;;;;16.87;3.23;;;;;;;17.08;100.00;100720.91;4991802;28;20394;-53
2022/11/03 07:49:27;;;;;;;15.47;3.43;;;;;;;16.85;100.00;100724.50;5004154;28;20273;-56
2022/11/03 07:51:56;;;;;;;18.07;3.07;;;;;;;17.10;100.00;100721.47;4998287;28;20299;-51
2022/11/03 07:54:27;;;;;;;14.33;2.90;;;;;;;16.83;100.00;100732.00;5001018;28;20296;-54
2022/11/03 07:57:16;;;;;;;13.87;3.43;;;;;;;17.31;100.00;100722.69;4996671;28;20273;-56
2022/11/03 07:59:44;;;;;;;10.20;3.10;;;;;;;17.77;100.00;100721.81;4997905;28;20315;-49
2022/11/03 08:02:32;;;;;;;14.80;2.83;;;;;;;17.42;100.00;100722.84;4994258;28;20276;-53
2022/11/03 08:04:58;;;;;;;11.47;2.93;;;;;;;17.38;100.00;100713.59;4995231;28;20286;-54
2022/11/03 08:07:24;;;;;;;;;;;;;;;17.22;100.00;100728.72;4997558;28;20295;-53
2022/11/03 08:09:51;;;;;;;12.07;3.60;;;;;;;17.03;100.00;100718.91;4993935;28;19914;-52
2022/11/03 08:12:16;;;;;;;12.48;2.10;;;;;;;17.19;100.00;100705.69;4999307;28;20295;-53
2022/11/03 08:14:41;;;;;;;9.47;2.50;;;;;;;17.42;100.00;100717.44;5001541;28;20042;-55
2022/11/03 08:17:07;;;;;;;24.10;3.63;;;;;;;17.26;100.00;100706.34;4996514;28;20064;-54
2022/11/03 08:19:32;;;;;;;14.77;3.20;;;;;;;17.17;100.00;100697.00;4991214;28;20043;-50
2022/11/03 08:21:58;;;;;;;7.95;2.72;;;;;;;17.31;100.00;100700.22;4983806;28;20067;-55
2022/11/03 08:24:23;;;;;;;18.50;3.10;;;;;;;17.49;100.00;100704.56;4990194;28;20062;-52
2022/11/03 08:26:49;;;;;;;11.23;2.75;;;;;;;17.41;100.00;100688.78;4987198;28;20027;-56
2022/11/03 08:29:16;;;;;;;17.93;2.63;;;;;;;17.65;100.00;100675.09;4993622;28;20035;-52
2022/11/03 08:31:42;;;;;;;16.90;2.70;;;;;;;17.23;100.00;100671.72;4995477;28;20037;-52
2022/11/03 08:34:07;;;;;;;19.42;3.40;;;;;;;17.84;100.00;100672.94;4983842;28;20299;-54
2022/11/03 08:36:33;;;;;;;20.65;3.83;;;;;;;17.73;100.00;100655.72;4992165;28;20050;-53
2022/11/03 08:38:58;;;;;;;11.83;3.90;;;;;;;17.80;100.00;100660.97;4986391;28;20035;-54
2022/11/03 08:41:23;;;;;;;19.88;3.40;;;;;;;17.68;100.00;100661.06;4987433;28;20046;-53
2022/11/03 08:43:49;;;;;;;17.35;3.33;;;;;;;17.79;100.00;100643.94;4988245;28;20058;-55
2022/11/03 08:46:14;;;;;;;16.93;3.37;;;;;;;17.87;100.00;100651.63;4996147;28;20101;-52
2022/11/03 08:48:40;;;;;;;10.25;3.05;;;;;;;18.19;100.00;100642.84;4997527;28;20027;-54
2022/11/03 08:51:07;;;;;;;23.33;4.00;;;;;;;18.51;100.00;100627.00;4996499;28;20061;-54
2022/11/03 08:53:33;;;;;;;15.50;4.20;;;;;;;18.31;100.00;100623.78;4994564;28;20122;-54
2022/11/03 08:55:59;;;;;;;26.43;3.93;;;;;;;18.50;100.00;100612.63;4993871;28;20268;-56
2022/11/03 08:58:24;;;;;;;14.33;3.07;;;;;;;18.46;100.00;100606.09;4996640;28;20276;-51
2022/11/03 09:00:50;;;;;;;15.37;2.80;;;;;;;18.53;100.00;100614.03;4998889;28;20280;-53
2022/11/03 09:03:15;;;;;;;15.32;4.43;;;;;;;18.58;100.00;100606.78;4996518;28;20287;-56
2022/11/03 09:05:41;;;;;;;15.10;3.10;;;;;;;18.48;100.00;100596.66;4996255;28;20061;-54
2022/11/03 09:08:07;;;;;;;14.02;3.15;;;;;;;18.71;100.00;100589.31;4992542;28;20039;-53
2022/11/03 09:10:33;;;;;;;15.70;2.95;;;;;;;18.56;100.00;100581.00;4997137;28;20043;-54
2022/11/03 09:12:58;;;;;;;19.77;3.65;;;;;;;18.62;100.00;100569.16;4996250;28;20098;-51
2022/11/03 09:15:24;;;;;;;13.70;3.30;;;;;;;18.34;100.00;100569.16;4996257;28;20060;-55
2022/11/03 09:17:50;;;;;;;13.70;3.70;;;;;;;18.53;100.00;100562.56;4994565;28;20050;-53
2022/11/03 09:20:16;;;;;;;16.90;2.97;;;;;;;19.20;100.00;100557.75;4994318;28;20126;-56
2022/11/03 09:22:41;;;;;;;15.57;3.55;;;;;;;19.02;100.00;100545.41;4996530;28;20086;-52
2022/11/03 09:25:07;;;;;;;11.38;2.90;;;;;;;19.13;100.00;100544.41;4998910;28;20034;-52
2022/11/03 09:27:33;;;;;;;13.02;2.70;;;;;;;19.07;100.00;100542.75;4993883;28;20053;-51
2022/11/03 09:29:59;;;;;;;8.60;3.00;;;;;;;18.89;100.00;100525.78;4988505;28;20877;-51
2022/11/03 09:32:25;;;;;;;12.07;2.83;;;;;;;18.96;100.00;100514.75;4988393;28;20039;-53
2022/11/03 09:34:50;;;;;;;16.23;3.05;;;;;;;18.89;100.00;100503.28;4986408;28;20038;-52
2022/11/03 09:37:16;;;;;;;10.95;3.08;;;;;;;18.88;100.00;100507.06;4988140;28;20118;-52
2022/11/03 09:39:42;;;;;;;15.10;3.22;;;;;;;19.02;100.00;100497.47;4990763;28;20030;-51
2022/11/03 09:42:10;;;;;;;17.10;2.95;;;;;;;19.19;100.00;100491.88;4984497;28;20145;-58
2022/11/03 09:44:36;;;;;;;10.20;2.43;;;;;;;19.26;100.00;100486.22;4988987;28;20042;-56
2022/11/03 09:47:02;;;;;;;;;;;;;;;19.23;100.00;100485.91;4991033;28;20279;-54
2022/11/03 09:49:30;;;;;;;12.27;3.63;;;;;;;19.37;100.00;100475.41;4995918;28;19926;-54
2022/11/03 09:51:57;;;;;;;16.90;3.40;;;;;;;19.48;100.00;100472.50;4994523;28;20039;-55
2022/11/03 09:54:23;;;;;;;12.38;3.55;;;;;;;19.40;100.00;100467.59;5002101;28;20286;-52
2022/11/03 09:56:48;;;;;;;11.35;3.47;;;;;;;19.19;100.00;100464.75;5001018;28;20098;-52
2022/11/03 09:59:17;;;;;;;10.47;2.50;;;;;;;19.23;100.00;100465.06;4996558;28;20053;-52
2022/11/03 10:01:45;;;;;;;19.03;3.57;;;;;;;19.25;100.00;100456.66;4998760;28;20057;-56
2022/11/03 10:04:11;;;;;;;17.20;2.80;;;;;;;18.90;100.00;100439.91;4995821;28;20276;-51
2022/11/03 10:06:38;;;;;;;13.15;2.60;;;;;;;18.57;100.00;100455.38;4999926;28;20295;-54
2022/11/03 10:09:07;;;;;;;11.13;2.70;;;;;;;18.64;100.00;100455.97;4988679;28;20104;-50
2022/11/03 10:11:33;;;;;;;9.77;2.63;;;;;;;19.06;100.00;100452.50;4984996;28;20352;-50
2022/11/03 10:13:59;;;;;;;11.87;2.47;;;;;;;18.97;100.00;100442.38;4993254;28;20260;-52
2022/11/03 10:16:25;;;;;;;14.10;2.47;;;;;;;19.30;100.00;100441.25;4986777;28;20273;-54
2022/11/03 10:18:52;;;;;;;13.67;2.77;;;;;;;19.28;100.00;100435.28;4984133;28;20065;-53
2022/11/03 10:21:22;;;;;;;8.32;2.58;;;;;;;19.34;100.00;100426.06;4987728;28;20345;-52
2022/11/03 10:23:49;;;;;;;6.97;2.60;;;;;;;19.78;100.00;100421.34;4986816;28;20049;-55
2022/11/03 10:26:17;;;;;;;14.30;2.73;;;;;;;19.21;100.00;100426.56;4987180;28;20288;-53
2022/11/03 10:29:03;;;;;;;13.00;3.07;;;;;;;19.10;100.00;100438.41;4993683;28;20285;-51
2022/11/03 10:31:39;;;;;;;18.93;4.13;;;;;;;19.24;100.00;100417.91;4995285;28;20280;-53
2022/11/03 10:34:22;;;;;;;;;;;;;;;19.45;100.00;100420.72;4998416;28;20261;-55
2022/11/03 10:36:48;;;;;;;8.80;2.20;;;;;;;19.56;100.00;100410.72;4995441;28;19913;-55
2022/11/03 10:39:29;;;;;;;7.00;2.47;;;;;;;19.66;100.00;100402.59;4996324;28;20276;-55
2022/11/03 10:41:57;;;;;;;9.90;2.43;;;;;;;19.59;100.00;100402.84;4990484;28;20042;-54
2022/11/03 10:44:25;;;;;;;8.50;2.20;;;;;;;19.38;100.00;100395.75;4995788;28;20264;-52
2022/11/03 10:47:05;;;;;;;9.60;2.90;;;;;;;19.38;100.00;100384.91;4992935;28;20265;-55
2022/11/03 10:49:35;;;;;;;10.40;2.67;;;;;;;19.33;100.00;100380.25;4988442;28;20285;-55
2022/11/03 10:52:12;;;;;;;18.77;3.53;;;;;;;19.49;100.00;100373.81;4984435;28;20285;-56
2022/11/03 10:54:38;;;;;;;;;;;;;;;20.09;100.00;100361.72;4990232;28;20276;-56
2022/11/03 10:57:03;;;;;;;12.23;2.10;;;;;;;20.04;100.00;100364.41;4994405;28;19957;-56
2022/11/03 10:59:35;;;;;;;10.95;2.30;;;;;;;19.51;100.00;100356.47;4998357;28;20054;-54
2022/11/03 11:02:02;;;;;;;10.60;2.60;;;;;;;19.96;100.00;100357.66;4995505;28;20030;-55
2022/11/03 11:04:28;;;;;;;9.33;2.30;;;;;;;19.54;100.00;100345.88;4993259;28;20280;-56
2022/11/03 11:06:54;;;;;;;12.33;2.57;;;;;;;19.42;100.00;100359.69;4992058;28;20312;-56
2022/11/03 11:09:26;;;;;;;17.88;2.45;;;;;;;19.96;100.00;100352.22;4995220;28;20109;-54
2022/11/03 11:12:01;;;;;;;8.73;2.67;;;;;;;19.70;100.00;100354.06;4992635;28;20107;-56
2022/11/03 11:14:29;;;;;;;12.00;2.30;;;;;;;19.83;100.00;100358.94;4984572;28;20307;-56
2022/11/03 11:16:56;;;;;;;15.07;2.70;;;;;;;19.73;100.00;100350.81;4989355;28;20035;-57
2022/11/03 11:19:23;;;;;;;16.73;2.60;;;;;;;19.86;100.00;100365.75;4987780;28;20031;-56
2022/11/03 11:21:57;;;;;;;11.07;3.83;;;;;;;20.19;100.00;100337.28;4981347;28;20039;-54
2022/11/03 11:24:41;;;;;;;14.07;2.57;;;;;;;20.51;100.00;100346.22;4995364;28;20045;-56
2022/11/03 11:27:34;;;;;;;9.70;2.30;;;;;;;20.44;100.00;100338.34;4997833;28;20058;-54
2022/11/03 11:30:03;;;;;;;12.97;2.27;;;;;;;20.63;100.00;100332.34;4992252;28;20066;-54
2022/11/03 11:32:38;;;;;;;7.03;2.47;;;;;;;20.58;100.00;100329.63;4995608;28;20038;-54
2022/11/03 11:35:09;;;;;;;10.57;2.40;;;;;;;20.12;100.00;100328.63;5000352;28;20141;-55
2022/11/03 11:37:37;;;;;;;9.10;2.00;;;;;;;19.16;100.00;100301.88;4981840;28;20031;-55
2022/11/03 11:40:24;;;;;;;10.13;2.30;;;;;;;19.33;100.00;100310.56;4988247;28;20811;-55
2022/11/03 11:43:02;;;;;;;;;;;;;;;19.61;100.00;100292.22;4980847;28;20067;-57